Date,TemperatureHighF,TemperatureAvgF,TemperatureLowF,DewpointHighF,DewpointAvgF,DewpointLowF,HumidityHigh,HumidityAvg,HumidityLow,PressureMaxIn,PressureMinIn,WindSpeedMaxMPH,WindSpeedAvgMPH,GustSpeedMaxMPH,PrecipitationSumIn
2013-1-1,43.9,40.8,36.8,43.4,36.6,24.0,98,86,52,30.01,29.84,6,0,10,0.71
2013-1-2,45.9,41.8,37.7,43.5,39.6,36.3,99,92,77,29.98,29.80,8,3,12,0.06
2013-1-3,45.2,37.1,30.3,37.4,32.6,22.4,97,84,66,30.18,29.94,8,3,12,0.00
2013-1-4,46.7,33.1,24.8,27.5,21.4,14.1,89,65,33,30.26,30.15,12,5,16,0.00
2013-1-5,48.8,35.5,23.1,32.9,24.0,19.7,87,65,34,30.29,30.13,10,3,13,0.00
2013-1-6,51.8,40.9,36.2,40.1,34.2,28.1,97,79,45,30.12,29.92,11,5,18,0.00
2013-1-7,52.5,39.1,28.4,30.4,27.2,23.6,90,65,34,30.26,30.06,9,4,16,0.00
2013-1-8,53.3,40.3,28.3,46.0,34.7,25.2,93,81,62,30.32,30.21,8,2,12,0.00
2013-1-9,52.4,48.3,44.3,50.7,46.9,42.3,98,95,90,30.33,30.25,3,0,8,0.00
2013-1-10,61.5,53.0,45.1,52.7,49.4,44.6,98,89,68,30.33,30.13,12,3,20,0.00
2013-1-11,59.3,56.3,53.5,58.7,55.6,52.3,98,97,95,30.13,29.97,17,3,25,1.01
2013-1-12,67.8,61.0,58.1,63.5,58.9,55.3,99,93,72,30.01,29.90,0,0,0,0.13
2013-1-13,61.9,60.0,57.8,59.0,57.4,55.8,98,91,85,29.95,29.87,0,0,0,0.54
2013-1-14,61.4,58.9,52.0,60.6,58.1,51.2,99,97,92,29.94,29.85,0,0,0,1.71
2013-1-15,57.2,55.7,51.4,56.5,55.2,50.9,99,98,97,29.93,29.79,28,6,42,2.35
2013-1-16,61.9,54.6,50.2,59.7,53.7,49.7,99,97,74,29.84,29.73,25,9,38,0.65
2013-1-17,51.6,46.5,33.0,51.3,45.7,29.8,99,97,86,30.05,29.51,29,6,45,1.90
2013-1-18,51.1,38.0,28.4,30.2,26.4,21.7,88,65,34,30.36,30.05,18,9,26,0.19
2013-1-19,52.1,37.7,27.1,32.6,28.1,25.5,95,71,38,30.33,30.10,25,5,36,0.00
2013-1-20,58.7,42.5,30.2,36.6,29.0,25.7,86,61,32,30.10,29.94,21,10,32,0.00
2013-1-21,52.5,37.6,28.2,32.4,24.8,15.4,93,63,34,29.99,29.87,25,10,49,0.00
2013-1-22,38.5,28.8,22.6,15.8,8.9,2.6,56,44,24,30.14,29.93,26,16,45,0.00
2013-1-23,48.7,35.7,26.0,31.0,20.2,8.0,71,53,42,30.22,29.99,17,7,26,0.00
2013-1-24,44.9,39.3,28.0,33.4,16.7,-3.6,74,44,13,30.23,29.91,66,16,66,0.00
2013-1-25,37.6,27.4,20.4,37.1,20.3,5.5,98,77,46,30.26,30.00,25,9,37,0.19
2013-1-26,55.6,39.8,32.7,36.7,28.9,21.4,98,69,35,30.19,30.03,19,7,34,0.06
2013-1-27,46.7,36.8,27.7,34.8,30.1,24.7,91,77,60,30.35,30.18,23,11,38,0.00
2013-1-28,59.0,45.8,37.0,51.8,40.9,30.0,98,83,70,30.30,30.13,23,6,27,0.00
2013-1-29,60.0,49.8,36.8,58.2,48.6,36.3,99,96,88,30.15,29.85,27,7,50,0.17
2013-1-30,60.4,54.8,41.0,59.8,53.6,37.2,99,95,81,29.85,29.33,38,19,57,2.23
2013-1-31,41.2,35.2,28.9,36.6,24.0,19.3,89,65,43,29.95,29.44,22,9,63,0.29
2013-2-1,38.6,30.0,21.1,30.4,12.2,2.6,82,48,28,30.24,29.88,29,14,44,0.03
2013-2-2,37.4,27.2,18.2,31.8,19.8,6.4,98,76,31,30.24,29.97,20,2,31,0.04
2013-2-3,44.4,35.1,29.8,35.5,28.4,24.4,97,78,50,29.97,29.82,27,9,41,0.31
2013-2-4,46.9,35.4,26.3,27.3,23.7,19.1,82,64,39,30.03,29.87,20,8,31,0.02
2013-2-5,57.1,42.8,33.7,41.3,31.9,26.1,85,67,39,29.90,29.81,13,2,24,0.00
2013-2-6,59.9,46.2,35.3,35.8,29.2,20.4,91,57,24,30.05,29.89,14,4,24,0.00
2013-2-7,45.8,42.0,38.0,42.3,35.3,25.4,98,79,51,30.05,29.82,12,2,18,0.21
2013-2-8,49.6,42.2,33.2,45.9,38.4,27.9,99,87,58,30.00,29.78,26,8,41,0.02
2013-2-9,59.6,42.1,28.7,31.2,25.2,17.6,85,57,20,30.18,29.97,21,11,34,0.00
2013-2-10,50.7,44.2,40.4,47.8,31.6,22.8,98,64,36,30.20,29.99,30,15,44,1.21
2013-2-11,55.1,50.1,44.5,54.2,44.4,28.7,98,83,46,29.99,29.87,31,9,43,0.46
2013-2-12,52.7,44.7,38.2,40.6,31.6,21.9,97,63,30,29.96,29.74,20,7,34,0.10
2013-2-13,49.9,41.4,32.9,43.7,37.4,29.6,97,86,67,29.77,29.54,25,10,45,0.05
2013-2-14,53.7,39.9,29.2,32.9,29.1,23.6,92,69,37,29.94,29.77,22,6,28,0.00
2013-2-15,59.4,40.7,28.9,38.6,31.7,27.1,95,74,36,29.99,29.84,16,4,24,0.00
2013-2-16,37.4,30.4,22.2,32.6,21.6,9.9,88,70,47,29.92,29.74,28,11,43,0.00
2013-2-17,36.9,27.4,19.8,16.3,9.1,3.6,60,47,25,30.17,29.92,25,13,47,0.00
2013-2-18,51.9,35.8,20.9,26.8,20.5,12.7,80,56,36,30.27,30.04,33,10,46,0.00
2013-2-19,50.8,39.3,32.2,45.6,27.4,15.9,98,66,38,30.04,29.79,40,12,57,0.26
2013-2-20,47.4,36.4,27.5,16.6,7.8,-3.4,55,34,12,30.02,29.94,25,17,48,0.00
2013-2-21,61.1,41.1,26.0,37.6,20.7,9.4,96,48,15,30.08,29.91,23,8,38,0.48
2013-2-22,41.9,39.0,35.8,41.3,37.8,33.4,98,95,89,30.07,29.92,26,10,42,0.68
2013-2-23,51.6,46.0,40.6,50.9,45.5,40.1,99,98,96,29.94,29.69,14,2,20,0.39
2013-2-24,60.2,46.0,36.4,44.3,31.8,19.7,99,64,21,29.88,29.73,24,10,36,0.00
2013-2-25,50.7,40.6,32.1,39.8,30.2,23.9,93,67,47,29.95,29.77,23,9,32,0.00
2013-2-26,45.6,43.7,39.1,43.9,41.3,32.3,97,91,76,29.77,29.39,31,15,48,1.35
2013-2-27,54.8,42.5,34.4,37.2,32.6,29.5,90,70,40,29.67,29.54,21,8,34,0.03
2013-2-28,39.7,34.0,29.8,30.7,25.9,23.0,80,72,63,29.80,29.62,22,10,34,0.00
2013-3-1,42.0,33.8,29.6,29.7,27.3,24.9,90,77,61,29.84,29.77,22,12,36,0.00
2013-3-2,39.9,32.1,26.2,31.9,26.2,18.5,96,80,53,29.84,29.75,23,12,44,0.03
2013-3-3,36.1,27.4,22.2,19.4,16.3,13.9,77,64,45,29.93,29.82,27,17,42,0.00
2013-3-4,52.9,37.8,22.8,34.5,21.0,13.1,75,53,28,30.05,29.92,21,9,32,0.00
2013-3-5,50.1,43.1,32.2,48.4,37.7,26.5,98,83,53,29.96,29.52,23,10,32,0.69
2013-3-6,33.7,29.9,24.7,29.0,24.5,20.9,95,81,67,30.05,29.60,31,16,55,0.01
2013-3-7,54.6,36.9,25.1,33.1,27.2,23.1,93,70,38,30.16,30.04,19,12,28,0.00
2013-3-8,60.2,41.4,25.0,31.6,22.3,11.3,96,56,16,30.20,30.08,20,6,28,0.00
2013-3-9,61.2,45.6,30.5,31.7,27.8,21.3,79,52,30,30.19,30.06,25,9,39,0.00
2013-3-10,61.4,50.9,39.3,39.3,33.0,30.3,72,52,33,30.11,29.98,28,15,41,0.00
2013-3-11,54.5,50.0,47.1,51.6,47.5,39.1,98,92,57,29.98,29.65,36,23,58,1.14
2013-3-12,57.7,47.3,37.1,51.8,37.1,19.7,98,73,28,29.89,29.62,30,16,46,0.19
2013-3-13,47.8,38.6,28.1,30.6,23.9,18.3,77,57,35,30.05,29.89,30,12,52,0.00
2013-3-14,50.4,35.0,23.1,19.3,14.4,4.1,74,47,18,30.19,30.05,24,13,36,0.00
2013-3-15,68.3,50.6,34.6,43.1,33.4,14.0,79,54,30,30.10,29.81,18,6,34,0.00
2013-3-16,74.9,63.4,55.2,48.5,44.0,40.1,58,50,36,29.81,29.63,18,7,45,0.00
2013-3-17,71.8,61.8,54.0,49.8,45.8,43.1,71,56,40,29.78,29.68,18,7,30,0.00
2013-3-18,56.2,47.3,43.8,48.0,45.1,43.0,98,92,71,29.80,29.68,25,12,42,0.58
2013-3-19,57.7,46.8,38.4,44.2,30.5,11.6,98,61,22,29.94,29.72,26,11,38,0.01
2013-3-20,55.4,41.5,32.7,31.5,16.1,9.4,93,38,17,29.96,29.72,19,7,35,0.00
2013-3-21,39.7,31.0,21.6,30.6,12.6,6.7,93,48,29,29.84,29.68,29,16,42,0.00
2013-3-22,46.4,35.3,24.8,30.5,20.3,12.9,74,55,39,29.94,29.84,9,2,21,0.00
2013-3-23,59.0,44.7,36.8,48.6,39.5,27.9,97,83,59,29.91,29.68,26,4,40,0.09
2013-3-24,52.0,44.8,38.4,50.6,43.3,32.8,98,95,79,29.75,29.34,32,10,41,1.17
2013-3-25,38.4,31.7,27.6,33.5,25.2,21.1,88,77,66,29.83,29.42,13,6,36,0.00
2013-3-26,38.3,31.8,26.0,25.4,22.7,19.9,88,69,53,30.10,29.83,28,13,41,0.00
2013-3-27,41.5,31.8,27.2,25.0,21.9,19.4,76,67,45,30.18,30.08,25,16,40,0.00
2013-3-28,53.7,47.0,37.0,24.9,18.5,12.2,56,33,20,30.18,30.07,29,13,51,0.00
2013-3-29,49.4,38.0,27.6,39.9,28.8,20.2,96,71,40,30.23,30.13,17,4,26,0.02
2013-3-30,63.4,49.0,38.4,47.2,40.1,37.4,98,75,41,30.13,29.90,16,6,28,0.11
2013-3-31,61.1,53.2,48.3,54.7,50.6,47.2,98,91,69,29.90,29.69,21,6,32,0.60
2013-4-1,63.4,53.9,45.2,51.3,42.9,34.7,97,70,40,29.84,29.69,25,8,42,0.00
2013-4-2,60.3,48.8,38.3,35.0,24.3,13.9,71,42,17,29.99,29.83,22,12,31,0.00
2013-4-3,57.9,48.4,40.1,30.8,27.4,23.4,60,45,31,30.08,29.96,21,11,33,0.00
2013-4-4,48.8,39.7,35.5,38.1,34.6,26.5,98,84,42,30.05,29.81,18,4,23,0.68
2013-4-5,61.2,47.8,38.6,44.8,38.4,31.3,98,74,35,29.94,29.81,25,10,34,0.00
2013-4-6,66.7,51.3,35.2,40.9,35.1,32.0,91,58,30,30.08,29.94,21,8,34,0.00
2013-4-7,66.6,57.4,44.9,46.3,40.4,32.2,68,53,43,30.04,29.93,23,13,35,0.00
2013-4-8,70.8,62.8,52.8,53.1,49.0,44.6,79,61,48,29.98,29.90,22,11,44,0.00
2013-4-9,77.6,65.9,52.0,57.2,53.4,49.2,91,66,46,30.02,29.92,22,9,33,0.00
2013-4-10,80.8,68.3,54.0,58.8,54.5,51.1,91,64,41,29.95,29.76,23,8,35,0.00
2013-4-11,74.1,65.2,59.3,63.3,56.9,52.2,97,75,52,29.76,29.48,28,13,47,1.42
2013-4-12,68.9,60.5,49.2,58.9,47.9,33.2,98,67,31,29.72,29.45,20,9,44,0.74
2013-4-13,71.3,57.4,45.9,40.8,35.1,26.1,74,47,19,29.88,29.71,25,15,41,0.00
2013-4-14,64.3,52.7,42.5,49.4,41.5,33.3,94,67,41,29.93,29.80,30,10,47,0.03
2013-4-15,72.2,59.1,50.5,58.9,53.8,49.1,98,84,60,30.01,29.79,24,8,36,0.09
2013-4-16,75.6,64.9,57.1,61.8,58.0,54.9,97,79,59,30.11,29.99,21,11,36,0.00
2013-4-17,65.3,62.4,60.5,58.4,57.8,57.1,90,85,78,30.04,30.01,13,4,25,0.00
2013-4-18,72.1,67.6,64.5,60.8,59.6,57.4,86,76,64,29.87,29.75,27,17,39,0.01
2013-4-19,64.5,57.6,40.9,61.9,54.0,34.3,98,88,53,29.79,29.54,30,18,53,1.06
2013-4-20,59.5,46.7,35.4,34.5,28.1,22.0,78,51,25,30.13,29.79,30,14,45,0.00
2013-4-21,62.9,48.5,35.1,39.5,33.7,29.2,89,60,33,30.24,30.13,19,4,29,0.00
2013-4-22,67.5,53.6,41.8,45.1,39.1,34.5,82,59,39,30.21,30.01,19,7,27,0.00
2013-4-23,70.0,55.3,38.6,46.2,39.0,31.2,79,56,35,30.08,29.94,21,7,30,0.00
2013-4-24,66.2,58.6,51.8,58.2,52.4,45.6,96,81,63,29.97,29.86,20,7,31,0.09
2013-4-25,67.2,53.7,40.4,51.2,33.4,13.3,95,57,13,30.16,29.92,25,13,38,0.00
2013-4-26,68.6,54.2,36.2,43.8,34.6,28.8,81,50,29,30.25,30.14,19,8,43,0.00
2013-4-27,55.7,50.0,47.2,51.3,47.3,42.5,98,91,61,30.21,30.07,17,2,29,0.37
2013-4-28,53.2,50.9,48.5,52.6,50.1,47.8,99,97,92,30.07,29.87,22,7,35,1.95
2013-4-29,71.7,59.1,50.6,59.0,53.2,50.1,99,83,49,29.90,29.75,16,5,29,0.03
2013-4-30,75.0,60.8,47.0,59.2,53.1,46.3,98,78,49,29.96,29.80,20,4,29,0.00
2013-5-1,70.1,61.4,53.3,56.4,53.0,49.5,95,75,55,30.04,29.96,18,5,26,0.00
2013-5-2,66.0,58.5,55.2,57.0,53.2,50.5,93,83,68,30.06,30.00,16,5,27,0.00
2013-5-3,63.8,55.8,51.4,53.7,51.6,47.9,95,86,59,30.01,29.86,16,6,26,0.03
2013-5-4,53.5,50.6,46.8,50.1,47.6,41.3,95,90,73,29.86,29.74,18,7,40,1.01
2013-5-5,53.3,51.2,49.7,51.3,49.3,48.1,95,93,89,29.76,29.62,17,6,32,0.99
2013-5-6,55.2,48.7,44.3,49.3,45.3,41.7,96,88,68,29.77,29.60,19,8,30,0.26
2013-5-7,68.5,53.1,41.5,50.4,44.1,39.7,97,75,38,29.82,29.73,14,4,24,0.00
2013-5-8,66.5,57.3,47.4,55.6,51.0,44.9,93,80,63,29.90,29.77,14,2,22,0.01
2013-5-9,74.1,60.6,49.3,63.5,53.7,47.9,97,80,49,29.97,29.88,13,2,22,0.06
2013-5-10,74.1,62.2,51.2,60.6,55.7,49.2,94,80,58,29.95,29.79,18,6,32,0.06
2013-5-11,73.4,60.6,56.0,63.0,56.9,54.6,96,88,59,29.82,29.69,25,2,32,0.25
2013-5-12,63.7,54.5,46.0,54.6,41.3,27.6,95,65,33,29.92,29.74,25,13,40,0.01
2013-5-13,64.3,51.0,40.2,37.0,31.2,22.7,76,50,22,30.05,29.91,25,8,36,0.00
2013-5-14,74.5,56.6,36.7,52.3,42.7,32.5,90,62,39,30.12,29.96,13,2,26,0.00
2013-5-15,84.8,69.1,52.9,57.4,52.2,43.4,90,59,28,29.99,29.81,17,6,30,0.00
2013-5-16,79.0,67.9,53.9,59.8,56.1,50.6,90,67,45,29.89,29.80,12,2,20,0.00
2013-5-17,75.8,65.3,56.0,63.3,56.8,53.6,93,76,53,29.94,29.84,16,4,29,0.00
2013-5-18,64.1,61.5,58.1,62.6,59.4,54.8,96,93,78,29.92,29.87,16,6,28,0.35
2013-5-19,70.1,64.3,59.4,67.6,62.3,58.0,97,93,86,29.93,29.83,15,6,21,0.43
2013-5-20,83.1,66.0,56.9,69.6,61.7,55.8,98,87,53,29.96,29.86,22,4,28,0.01
2013-5-21,84.2,67.8,60.5,70.8,63.1,59.0,97,87,52,29.89,29.76,23,2,38,0.74
2013-5-22,77.9,65.0,57.7,70.7,62.1,56.6,97,91,71,29.84,29.70,21,3,31,0.55
2013-5-23,79.1,67.5,60.2,65.5,58.8,52.1,97,76,46,29.77,29.70,17,4,26,0.28
2013-5-24,68.7,61.2,52.4,53.2,44.6,31.7,85,57,29,30.06,29.76,28,10,42,0.00
2013-5-25,76.3,58.7,40.8,48.6,39.3,24.8,91,54,19,30.17,30.03,22,5,37,0.00
2013-5-26,73.1,58.6,47.2,52.7,45.8,37.8,87,64,40,30.14,30.02,15,2,25,0.00
2013-5-27,76.7,64.1,49.3,60.7,54.1,46.6,93,71,53,30.11,29.97,17,4,26,0.00
2013-5-28,78.1,68.9,62.5,63.5,59.6,57.2,86,73,57,30.04,29.96,17,8,31,0.00
2013-5-29,79.1,69.2,60.4,64.9,60.7,57.5,92,76,51,30.05,29.97,18,6,30,0.00
2013-5-30,76.8,68.1,58.6,65.1,61.0,56.6,94,79,58,30.09,29.99,16,5,27,0.00
2013-5-31,78.5,69.5,61.9,65.7,62.0,58.6,91,78,59,30.05,29.92,16,6,27,0.00
2013-6-1,76.5,69.5,62.6,66.5,63.6,60.2,94,82,66,29.94,29.84,18,7,31,0.17
2013-6-2,72.9,67.0,63.7,70.9,65.2,62.4,97,94,88,29.86,29.72,17,7,31,0.58
2013-6-3,78.3,68.6,62.6,68.2,62.9,59.4,96,83,59,29.79,29.69,14,4,24,0.02
2013-6-4,80.3,67.2,55.4,67.2,60.6,54.0,97,81,47,29.88,29.78,14,4,24,0.00
2013-6-5,79.0,69.3,61.1,69.6,64.3,59.7,96,85,66,29.88,29.74,18,7,27,0.93
2013-6-6,73.0,65.4,60.4,69.4,63.7,59.3,97,94,84,29.77,29.60,18,4,26,0.05
2013-6-7,81.5,68.2,62.4,69.1,63.8,59.7,96,87,57,29.67,29.52,14,3,24,0.16
2013-6-8,78.8,68.0,59.8,67.1,62.3,58.4,96,83,57,29.92,29.66,11,2,20,0.04
2013-6-9,78.6,67.2,61.0,70.6,64.4,59.6,96,91,69,29.96,29.84,19,6,30,0.98
2013-6-10,75.7,67.5,63.1,67.4,63.2,58.8,96,87,58,29.84,29.75,20,8,46,0.72
2013-6-11,82.7,71.3,62.7,71.7,64.3,61.5,97,81,54,29.87,29.77,16,4,26,0.24
2013-6-12,87.0,72.7,60.7,76.1,67.2,59.6,97,84,59,29.89,29.78,16,2,26,0.00
2013-6-13,85.7,72.7,65.0,71.0,66.6,63.5,95,83,55,29.79,29.55,24,4,37,0.65
2013-6-14,79.2,68.1,56.2,63.5,57.2,53.2,95,71,43,29.88,29.64,18,7,28,0.01
2013-6-15,78.6,66.4,53.3,65.4,58.5,51.7,95,77,54,29.99,29.88,15,3,19,0.00
2013-6-16,80.5,69.5,57.3,68.4,62.7,55.6,95,80,59,29.99,29.85,13,3,18,0.02
2013-6-17,77.9,69.6,64.8,70.8,66.4,63.3,95,90,77,29.88,29.77,15,2,18,0.17
2013-6-18,74.3,67.6,64.8,70.8,65.6,63.4,96,94,81,29.79,29.67,15,2,22,0.07
2013-6-19,65.4,63.8,62.7,63.9,62.2,60.5,95,94,91,29.76,29.75,8,3,14,0.00
2013-6-22,82.5,74.7,63.5,66.0,62.2,56.8,91,67,43,30.05,29.95,14,5,22,0.01
2013-6-23,80.7,68.6,58.0,70.0,63.6,56.6,96,85,64,30.05,29.94,12,2,24,0.03
2013-6-24,79.8,70.4,65.3,72.0,66.9,63.8,97,89,72,30.04,29.92,18,2,30,0.35
2013-6-25,82.6,69.9,62.3,71.4,66.1,61.1,97,88,61,30.00,29.87,10,1,24,0.03
2013-6-26,83.6,69.4,62.8,73.5,66.4,61.3,97,91,66,29.90,29.76,10,1,24,0.09
2013-6-27,84.3,74.4,66.5,74.0,68.6,64.5,97,83,64,29.80,29.59,14,2,22,1.34
2013-6-28,87.3,73.7,64.4,72.0,67.1,62.9,96,82,50,29.65,29.47,14,2,28,0.02
2013-6-29,82.4,71.1,62.3,68.4,62.7,56.8,96,77,46,29.54,29.46,17,3,25,0.01
2013-6-30,81.3,67.7,56.7,67.8,62.2,55.3,96,83,57,29.63,29.53,17,3,25,0.00
2013-7-1,78.5,68.0,63.4,69.7,64.4,62.1,96,89,66,29.77,29.61,16,3,27,1.01
2013-7-2,77.3,68.3,62.9,70.0,65.0,61.7,96,90,68,29.93,29.76,16,6,28,1.75
2013-7-3,70.7,65.6,61.4,68.9,64.4,60.5,97,96,91,30.03,29.90,24,5,34,1.97
2013-7-4,70.1,64.7,61.1,68.9,63.7,60.2,98,97,95,30.04,29.97,20,6,38,1.39
2013-7-5,75.3,68.4,64.7,70.3,65.8,63.5,97,92,77,30.06,29.99,17,9,39,0.99
2013-7-6,75.1,68.6,65.3,71.3,66.8,64.1,97,94,84,30.02,29.93,19,8,31,2.32
2013-7-7,76.2,69.2,66.4,71.1,67.4,65.2,97,94,81,30.00,29.93,15,6,24,0.13
2013-7-8,84.2,71.8,66.3,72.6,68.0,65.3,97,89,62,30.04,29.93,18,2,27,0.33
2013-7-9,85.3,71.7,66.2,76.1,68.8,65.0,97,91,66,30.00,29.90,13,1,20,0.01
2013-7-10,84.8,71.7,67.3,74.6,68.7,66.1,97,91,64,29.95,29.78,13,1,19,1.11
2013-7-11,78.9,70.8,66.4,73.5,68.6,65.5,98,93,76,29.80,29.70,6,0,10,0.04
2013-7-12,85.1,71.6,64.9,71.3,66.5,61.1,97,85,47,29.80,29.70,20,3,24,0.00
2013-7-13,75.6,68.8,64.0,68.9,64.8,61.3,96,87,74,29.92,29.80,9,2,16,0.00
2013-7-14,73.3,68.9,67.0,70.8,66.9,65.1,96,94,87,30.08,29.90,13,4,26,0.71
2013-7-15,79.6,71.8,66.2,72.7,67.4,64.0,95,86,72,30.15,30.07,17,3,32,0.09
2013-7-16,85.7,73.7,65.0,75.0,68.9,63.8,97,86,64,30.16,30.06,13,2,18,0.02
2013-7-17,88.3,70.5,64.7,76.2,67.7,63.5,97,91,57,30.13,29.99,9,1,16,0.20
2013-7-18,82.3,71.6,63.6,75.9,67.6,62.7,97,88,70,30.08,29.91,15,3,25,0.02
2013-7-19,85.3,72.3,66.1,74.7,68.2,64.9,97,88,60,29.97,29.83,18,1,28,0.01
2013-7-20,85.2,70.9,65.2,75.1,68.2,64.0,97,92,63,29.89,29.77,8,1,14,0.32
2013-7-21,85.5,71.3,66.3,73.9,68.2,65.1,97,91,61,29.85,29.74,20,2,30,0.27
2013-7-22,80.7,71.7,65.5,73.0,68.0,64.6,98,89,67,29.83,29.68,14,2,24,0.00
2013-7-23,83.8,72.6,63.9,71.8,66.8,62.7,96,83,62,29.75,29.63,15,4,24,0.01
2013-7-24,84.7,73.2,66.1,71.6,67.6,64.6,96,84,55,29.68,29.62,13,4,24,0.00
2013-7-25,82.5,69.6,60.7,71.5,65.3,59.6,97,87,62,29.85,29.68,11,2,20,0.01
2013-7-26,78.2,67.4,59.7,70.7,65.0,58.6,97,93,73,29.93,29.84,16,2,24,0.29
2013-7-27,76.7,69.8,66.0,71.3,67.1,64.9,97,91,72,29.86,29.72,11,2,20,0.21
2013-7-28,81.5,70.2,63.0,70.3,63.6,58.6,97,82,50,29.86,29.74,8,1,19,0.01
2013-7-29,82.0,67.8,58.8,67.1,59.6,50.9,97,78,44,30.02,29.86,10,2,19,0.00
2013-7-30,83.2,69.0,55.7,70.1,62.7,54.4,96,82,57,30.08,29.97,12,2,21,0.00
2013-7-31,73.9,69.6,66.9,71.3,67.4,65.7,96,93,85,29.99,29.79,12,3,21,0.15
2013-8-1,83.2,72.5,66.1,73.7,67.2,63.1,97,84,63,29.82,29.72,14,3,20,0.00
2013-8-2,80.8,70.1,60.1,71.9,65.6,58.9,97,86,67,29.87,29.77,10,2,17,0.00
2013-8-3,82.1,71.4,63.1,69.9,66.1,61.9,97,85,63,29.88,29.80,8,1,15,0.00
2013-8-4,82.4,71.8,62.8,71.0,64.9,60.2,97,80,57,29.87,29.81,21,6,32,0.00
2013-8-5,80.8,69.9,60.5,70.8,64.9,58.5,96,85,64,29.90,29.81,14,2,25,0.00
2013-8-6,83.6,72.7,64.9,72.6,67.8,63.4,96,86,64,29.85,29.78,16,2,22,0.02
2013-8-7,72.2,69.3,67.8,71.0,67.9,66.6,96,95,91,29.86,29.82,15,4,21,0.25
2013-8-8,78.1,71.7,68.2,75.1,69.9,67.0,97,94,84,29.89,29.84,19,6,31,0.09
2013-8-9,80.3,72.3,67.0,76.9,70.0,66.1,98,93,80,29.93,29.85,13,3,26,0.01
2013-8-10,83.0,72.8,68.1,74.9,70.1,67.2,98,92,71,29.96,29.89,16,2,24,0.05
2013-8-11,84.3,73.0,66.6,75.2,69.7,65.7,97,90,70,29.99,29.89,17,1,23,0.01
2013-8-12,82.3,72.0,67.5,74.0,69.4,66.6,97,92,68,29.93,29.80,7,1,13,0.01
2013-8-13,80.5,71.0,66.3,74.6,68.2,64.5,98,91,73,29.82,29.67,12,2,20,0.37
2013-8-14,79.5,68.6,63.4,68.4,64.3,60.7,97,87,60,29.87,29.73,12,3,21,0.00
2013-8-15,69.6,64.0,57.5,63.1,59.3,55.6,94,85,74,29.94,29.86,16,5,28,0.00
2013-8-16,73.0,62.5,57.2,64.3,58.5,56.2,97,87,70,29.98,29.90,11,2,15,0.00
2013-8-17,68.1,63.3,59.9,63.8,60.1,55.5,97,90,79,29.99,29.93,12,2,20,0.07
2013-8-18,74.0,65.1,61.1,71.0,63.6,60.1,98,95,82,30.06,29.96,14,2,22,0.25
2013-8-19,73.0,66.6,62.7,69.9,65.1,61.8,98,95,88,30.03,29.92,13,4,21,0.96
2013-8-20,77.0,68.6,62.2,70.9,66.1,61.3,98,92,77,30.03,29.95,14,3,26,0.00
2013-8-21,72.5,67.5,65.7,71.0,66.5,64.8,97,97,92,30.07,29.97,9,1,15,0.25
2013-8-22,78.1,69.3,64.9,73.7,67.4,64.2,98,94,77,30.03,29.89,11,1,20,0.01
2013-8-23,84.3,71.7,62.9,71.3,66.0,62.1,98,84,53,29.93,29.81,9,2,17,0.01
2013-8-24,79.5,68.8,62.5,72.4,64.2,58.7,98,86,72,30.12,29.91,18,4,26,0.00
2013-8-25,77.3,66.0,54.8,67.1,59.8,53.6,97,81,64,30.21,30.09,11,3,16,0.00
2013-8-26,79.9,66.8,55.9,68.1,61.0,55.1,98,83,56,30.17,29.98,9,1,16,0.00
2013-8-27,83.8,68.1,58.2,71.1,63.4,57.4,98,86,54,30.01,29.88,10,2,15,0.01
2013-8-28,85.4,71.8,62.4,72.6,66.8,61.5,98,86,57,29.91,29.80,10,2,18,0.00
2013-8-29,86.2,75.3,66.2,73.8,69.2,64.8,96,82,62,29.82,29.74,15,5,24,0.00
2013-8-30,81.9,72.4,65.4,73.7,69.0,64.5,97,90,73,29.85,29.75,14,5,21,0.00
2013-8-31,83.1,71.3,66.5,74.7,68.9,64.7,98,92,70,29.80,29.71,12,2,19,0.24
2013-9-1,82.8,71.7,66.2,74.7,68.6,65.6,98,91,65,29.76,29.66,10,1,14,0.08
2013-9-2,80.6,71.5,65.8,72.1,68.1,65.2,98,90,71,29.79,29.67,12,2,18,0.00
2013-9-3,81.6,69.9,62.3,71.2,65.0,61.7,98,86,60,29.83,29.69,27,4,33,0.22
2013-9-4,83.0,68.4,60.5,70.3,64.6,59.6,98,89,56,29.95,29.83,8,1,12,0.01
2013-9-5,83.8,70.1,63.1,71.2,64.9,62.4,98,86,51,29.99,29.91,6,0,12,0.00
2013-9-6,80.0,67.7,59.0,67.5,63.0,58.4,98,86,61,30.00,29.91,12,3,18,0.01
2013-9-7,80.7,67.9,58.7,69.1,63.6,57.9,98,87,64,29.98,29.84,5,0,13,0.00
2013-9-8,82.2,69.0,60.4,69.8,63.6,59.6,98,85,55,29.86,29.78,11,1,16,0.01
2013-9-9,81.3,69.3,60.5,70.7,64.8,59.9,98,87,62,29.98,29.85,15,3,23,0.01
2013-9-10,82.5,70.2,62.3,72.0,65.6,61.7,98,87,62,30.08,29.97,14,3,21,0.00
2013-9-11,81.4,69.4,61.9,71.0,65.5,61.3,98,89,64,30.08,29.94,11,1,18,0.01
2013-9-12,77.7,68.6,64.9,70.9,66.4,64.2,98,93,77,29.95,29.74,14,4,23,0.04
2013-9-13,75.9,66.6,56.9,64.9,59.7,52.6,98,80,51,29.75,29.66,18,9,26,0.00
2013-9-14,74.2,58.7,47.6,59.7,53.2,46.8,98,83,53,29.95,29.75,12,2,24,0.00
2013-9-15,74.4,62.4,52.4,63.8,58.1,51.6,98,87,62,30.05,29.95,13,3,29,0.02
2013-9-16,79.4,65.4,57.0,65.7,60.0,56.4,98,84,55,30.01,29.93,9,1,21,0.00
2013-9-17,67.9,63.5,60.4,60.7,58.5,55.6,96,84,72,30.09,29.98,13,5,21,0.00
2013-9-18,69.3,62.7,59.4,61.2,57.2,52.7,95,83,67,30.10,30.00,11,4,21,0.00
2013-9-19,79.5,66.0,56.4,67.6,61.6,55.6,98,87,61,30.03,29.92,12,3,21,0.00
2013-9-20,79.6,67.5,59.3,67.9,62.9,58.7,98,86,60,29.93,29.76,11,2,21,0.00
2013-9-21,66.7,63.8,59.1,64.5,62.4,58.3,98,95,88,29.77,29.51,20,9,31,1.27
2013-9-22,75.2,61.4,51.9,60.6,56.6,51.4,98,86,55,29.75,29.60,12,4,20,0.01
2013-9-23,72.3,61.3,54.6,61.5,56.9,54.0,98,87,63,29.90,29.75,13,3,20,0.01
2013-9-24,71.4,60.5,52.3,64.5,58.0,51.8,98,92,76,29.90,29.78,16,4,27,0.00
2013-9-25,62.5,60.2,57.9,61.7,59.4,57.1,98,97,94,29.78,29.68,11,4,18,1.32
2013-9-26,74.4,64.0,57.1,64.3,60.0,56.5,98,88,66,29.87,29.72,10,2,19,0.00
2013-9-27,76.9,62.7,54.9,61.8,57.4,54.3,98,85,48,30.00,29.87,13,4,23,0.01
2013-9-28,71.0,60.2,50.7,60.1,55.1,49.9,98,84,61,30.07,29.96,14,3,22,0.00
2013-9-29,70.7,59.9,50.6,58.8,54.9,49.5,97,84,59,29.99,29.87,9,3,14,0.00
2013-9-30,71.7,59.8,52.5,61.4,56.1,52.0,98,88,63,29.94,29.85,10,2,18,0.00
2013-10-1,75.6,60.4,50.6,64.2,56.9,50.1,98,89,56,30.03,29.92,4,0,10,0.01
2013-10-2,77.9,63.4,56.1,65.0,59.0,55.5,98,87,54,30.03,29.93,13,2,18,0.00
2013-10-3,77.7,64.5,56.9,65.8,60.2,56.3,98,87,56,30.00,29.91,12,2,20,0.00
2013-10-4,79.8,64.3,54.9,65.3,59.3,54.3,98,86,52,30.03,29.94,10,1,14,0.01
2013-10-5,79.5,65.3,56.7,68.8,61.1,56.1,98,88,61,29.99,29.88,13,2,23,0.01
2013-10-6,74.6,64.8,56.5,66.1,61.0,55.9,98,88,68,29.91,29.72,18,6,34,0.33
2013-10-7,71.7,62.3,52.8,63.0,57.8,50.5,98,87,52,29.84,29.63,16,7,30,0.90
2013-10-8,71.0,57.1,48.4,59.6,52.4,47.6,98,85,60,30.01,29.84,16,6,26,0.00
2013-10-9,73.5,57.7,48.5,61.3,53.3,47.7,98,87,62,30.05,29.94,13,2,21,0.00
2013-10-10,72.0,58.4,49.3,58.3,52.5,48.8,98,83,53,29.98,29.86,15,6,26,0.00
2013-10-11,74.8,58.6,47.4,58.2,52.2,46.9,98,82,47,29.91,29.81,12,2,20,0.01
2013-10-12,74.5,59.6,47.7,60.9,54.5,47.1,98,85,55,29.97,29.86,15,2,24,0.01
2013-10-13,72.1,61.3,53.3,61.9,57.3,52.5,98,88,66,30.05,29.96,12,2,24,0.00
2013-10-14,70.2,61.7,57.6,62.8,59.1,56.4,98,92,73,30.05,29.95,11,1,18,0.00
2013-10-15,67.8,59.6,54.0,59.8,56.4,53.2,98,90,73,30.01,29.87,16,4,22,0.00
2013-10-16,67.8,57.8,51.4,60.0,55.5,50.9,98,92,75,29.91,29.81,5,0,9,0.01
2013-10-17,64.1,60.1,56.0,63.5,59.5,55.2,98,98,96,29.83,29.70,14,4,20,0.15
2013-10-18,67.3,56.9,50.2,57.1,53.0,49.7,98,88,60,29.86,29.76,14,6,21,0.00
2013-10-19,61.4,53.8,49.0,55.0,49.7,43.4,98,87,58,29.82,29.73,10,2,19,0.01
2013-10-20,67.0,50.1,38.4,47.2,43.0,36.7,97,79,40,29.94,29.80,16,5,23,0.00
2013-10-21,65.8,49.9,37.1,53.8,46.2,36.6,98,89,59,30.01,29.87,15,3,22,0.00
2013-10-22,70.3,56.2,49.3,54.9,50.2,45.0,98,82,48,29.90,29.67,9,1,12,0.01
2013-10-23,55.7,46.8,35.5,46.3,37.3,29.9,90,71,48,29.91,29.61,21,9,42,0.00
2013-10-24,55.9,42.0,30.7,40.7,34.2,28.7,93,76,51,30.05,29.91,11,2,18,0.00
2013-10-25,50.9,39.7,30.2,36.8,26.8,20.3,83,63,31,30.22,30.05,16,6,33,0.00
2013-10-26,56.7,40.0,25.5,36.7,31.1,24.1,96,74,39,30.20,30.00,10,1,21,0.00
2013-10-27,65.2,53.6,42.8,52.0,45.7,35.3,89,75,56,30.00,29.92,19,4,28,0.00
2013-10-28,61.5,54.1,49.8,56.4,51.1,48.1,98,90,71,30.12,29.97,8,1,12,0.16
2013-10-29,67.0,54.2,48.4,54.2,50.2,47.8,98,87,57,30.19,30.10,8,1,17,0.01
2013-10-30,73.5,60.5,51.4,58.4,54.0,50.0,97,81,55,30.15,29.99,13,3,22,0.00
2013-10-31,63.6,60.1,56.9,60.4,56.1,52.8,98,87,74,30.01,29.68,21,9,41,0.05
2013-11-1,74.8,63.4,52.6,60.6,50.1,34.5,98,68,24,29.68,29.50,29,8,45,0.49
2013-11-2,62.1,50.7,42.5,45.6,41.2,37.3,85,71,43,29.87,29.59,18,5,34,0.01
2013-11-3,60.5,47.5,39.1,39.0,36.3,27.9,91,68,30,30.17,29.86,18,7,28,0.00
2013-11-4,55.9,46.2,35.8,39.2,35.0,32.9,90,66,47,30.31,30.17,16,6,27,0.00
2013-11-5,62.9,47.3,36.3,41.4,34.1,30.3,88,63,33,30.35,30.23,14,4,21,0.00
2013-11-6,63.5,53.4,43.5,56.5,49.1,35.0,98,86,62,30.25,29.98,17,4,24,0.08
2013-11-7,61.7,52.3,39.2,55.7,44.0,27.3,98,76,33,29.99,29.85,28,10,43,0.06
2013-11-8,56.2,43.0,35.0,30.2,23.1,14.2,72,49,20,30.18,29.99,18,8,30,0.00
2013-11-9,54.7,41.7,29.5,37.4,30.5,23.4,87,66,41,30.23,30.11,12,2,23,0.00
2013-11-10,65.9,51.0,37.8,38.1,32.7,26.3,82,53,26,30.15,30.05,24,10,41,0.00
2013-11-11,62.7,47.2,33.4,36.7,32.6,29.8,87,59,35,30.16,30.02,15,4,30,0.00
2013-11-12,54.6,39.8,24.9,39.1,29.5,15.5,79,67,46,30.29,29.97,32,12,47,0.00
2013-11-13,49.4,32.2,19.4,18.8,13.3,8.1,77,50,20,30.43,30.29,19,7,32,0.00
2013-11-14,58.5,39.7,23.4,23.3,18.0,13.0,76,46,19,30.38,30.20,20,4,32,0.00
2013-11-15,48.5,37.9,31.2,48.0,32.3,18.8,98,81,56,30.24,30.07,18,1,25,0.46
2013-11-16,61.1,52.7,47.5,56.3,51.4,47.0,99,95,83,30.12,30.02,19,6,26,0.01
2013-11-17,59.1,56.7,54.9,58.5,55.5,53.5,98,96,92,30.04,29.75,21,14,40,0.45
2013-11-18,63.7,56.1,44.5,60.6,44.7,31.5,98,69,30,29.85,29.69,28,12,50,0.13
2013-11-19,58.0,44.9,35.8,35.9,29.5,25.1,73,56,36,30.06,29.85,24,11,40,0.00
2013-11-20,53.2,43.5,36.0,32.4,28.2,23.8,69,55,40,30.24,30.06,17,7,26,0.00
2013-11-21,53.6,47.5,42.4,52.9,43.0,31.5,98,85,63,30.29,30.20,14,2,18,0.12
2013-11-22,62.0,55.5,50.9,59.3,54.7,50.4,99,97,91,30.22,29.97,16,5,21,0.12
2013-11-23,55.9,47.9,32.4,55.3,40.4,16.1,98,78,36,30.07,29.93,21,12,36,0.00
2013-11-24,46.9,33.2,22.7,21.7,13.0,3.5,70,46,18,30.35,30.05,20,11,41,0.00
2013-11-25,40.9,32.9,25.4,32.1,12.8,1.1,95,45,20,30.36,30.13,19,9,30,0.04
2013-11-26,45.5,41.6,32.6,44.8,41.0,31.4,99,98,95,30.12,29.50,20,4,35,3.44
2013-11-27,43.3,30.8,21.1,42.9,26.5,15.9,99,85,67,30.07,29.48,28,18,56,0.09
2013-11-28,50.0,29.9,18.0,27.1,20.1,15.2,90,70,31,30.36,30.07,14,5,47,0.01
2013-11-29,58.1,38.1,23.9,30.5,25.9,22.4,95,66,30,30.44,30.32,21,7,36,0.00
2013-11-30,48.6,38.3,27.9,30.4,25.6,23.4,84,61,41,30.41,30.21,19,7,30,0.00
2013-12-1,56.3,41.1,30.7,39.4,28.7,24.5,83,63,31,30.21,29.88,8,1,12,0.00
2013-12-2,52.7,43.5,36.6,44.7,38.4,28.9,92,82,70,29.88,29.67,9,1,14,0.01
2013-12-3,51.1,48.3,45.7,50.2,47.5,44.4,98,97,92,29.78,29.70,18,7,28,0.03
2013-12-4,62.2,54.9,49.5,57.7,53.6,48.9,99,96,83,29.90,29.78,20,9,39,0.01
2013-12-5,65.4,60.7,56.7,62.8,59.9,56.1,99,97,90,29.91,29.81,22,11,30,0.88
2013-12-6,66.6,63.5,55.1,63.6,61.9,54.5,99,94,88,29.85,29.75,35,19,59,0.85
2013-12-7,55.3,50.4,44.7,54.7,48.0,43.4,98,92,79,30.14,29.82,21,9,33,0.00
2013-12-8,45.3,40.1,36.7,43.4,39.3,36.3,99,97,92,30.14,30.02,35,15,44,0.83
2013-12-9,54.2,48.2,39.2,53.9,47.9,38.6,99,99,98,30.03,29.85,39,12,53,1.34
2013-12-10,52.2,42.9,29.2,51.0,37.3,22.3,99,82,46,30.15,29.74,34,18,50,0.26
2013-12-11,50.9,35.1,22.1,28.4,21.3,10.9,97,63,25,30.33,30.15,15,4,24,0.00
2013-12-12,45.4,34.6,27.1,24.1,13.2,-1.0,76,46,16,30.27,30.20,25,11,34,0.00
2013-12-13,48.2,34.7,21.5,23.7,19.0,12.0,83,55,31,30.26,30.11,20,5,26,0.00
2013-12-14,47.7,44.3,39.3,46.7,39.8,23.6,99,86,49,30.12,29.64,26,10,40,0.99
2013-12-15,46.2,36.5,28.2,45.7,32.7,25.6,98,86,69,30.02,29.62,29,17,46,0.01
2013-12-16,54.2,36.6,23.5,33.9,26.7,22.5,98,72,33,30.12,30.01,11,4,22,0.01
2013-12-17,58.6,43.3,31.2,36.5,30.8,23.4,87,64,36,30.07,29.87,20,6,41,0.00
2013-12-18,53.5,38.6,28.9,23.7,12.1,2.5,58,37,13,30.18,29.95,22,8,40,0.00
2013-12-19,63.4,42.3,27.4,30.0,21.3,12.9,67,45,24,30.23,30.09,21,5,38,0.00
2013-12-20,59.9,48.5,37.8,49.3,36.5,25.4,88,64,38,30.09,29.98,19,7,29,0.00
2013-12-21,63.4,57.5,52.7,61.7,56.1,49.2,98,95,88,30.00,29.76,39,21,68,0.49
2013-12-22,65.1,57.5,53.9,62.1,56.6,53.4,99,97,87,29.88,29.73,40,13,61,3.68
2013-12-23,54.0,47.1,36.0,53.7,45.3,33.5,99,93,79,30.04,29.84,23,11,32,0.02
2013-12-24,35.9,29.8,22.2,33.5,23.1,16.6,96,77,50,30.29,30.03,34,14,46,0.00
2013-12-25,39.1,27.7,18.4,24.7,18.9,14.5,93,72,40,30.38,30.24,20,6,31,0.00
2013-12-26,45.4,30.4,23.3,24.1,21.9,19.8,89,72,42,30.26,30.17,16,4,28,0.00
2013-12-27,54.1,36.0,24.6,30.1,25.4,21.8,91,68,33,30.35,30.23,8,1,28,0.00
2013-12-28,37.8,32.6,26.4,37.0,30.0,24.1,98,90,76,30.30,29.93,10,2,28,0.51
2013-12-29,55.4,45.7,37.6,47.7,42.7,33.4,99,90,71,29.93,29.69,26,14,37,0.44
2013-12-30,48.0,42.5,38.4,39.5,36.0,29.6,88,78,65,30.00,29.83,20,8,32,0.00
2013-12-31,43.2,35.7,29.6,33.2,23.7,16.9,87,63,38,30.23,29.98,29,10,48,0.00
2014-1-1,44.6,34.4,26.4,29.6,25.5,20.9,85,71,48,30.25,30.02,20,6,31,0.00
2014-1-2,45.3,35.9,19.4,44.8,32.7,11.8,98,88,72,30.02,29.56,27,7,54,0.22